FIN4MW EFHK-EFOU
Flight info
| Callsign | FIN4MW |
|---|---|
| Flight time | 0h 54m |
| Altitude | 36000 |
| Route | TEVRU Y75 USUPO DCT SUVIB |
| Aircraft | A320/M-SDE3FGHIRWY/LB1 |
Departure
| Time | 2026-04-25 01:27 |
|---|---|
| Airport | Helsinki Vantaa Airport (EFHK) |
Arrival
| Time | 2026-04-25 02:21 |
|---|---|
| Airport | Oulu Airport (EFOU) |
| Time | Latitude | Longitude | Altitude | Speed | Heading |
|---|---|---|---|---|---|
| 2026-04-25 01:04 | 60.31907 | 24.96621 | 190 ft | 0 kts | 137° |
| 2026-04-25 01:18 | 60.31910 | 24.96616 | 190 ft | 2 kts | 137° |
| 2026-04-25 01:18 | 60.31921 | 24.96595 | 190 ft | 2 kts | 137° |
| 2026-04-25 01:18 | 60.31927 | 24.96583 | 190 ft | 1 kts | 137° |
| 2026-04-25 01:19 | 60.31936 | 24.96559 | 190 ft | 2 kts | 108° |
| 2026-04-25 01:19 | 60.31938 | 24.96529 | 190 ft | 2 kts | 85° |
| 2026-04-25 01:19 | 60.31934 | 24.96500 | 190 ft | 2 kts | 61° |
| 2026-04-25 01:19 | 60.31930 | 24.96486 | 190 ft | 1 kts | 47° |
| 2026-04-25 01:20 | 60.31926 | 24.96478 | 190 ft | 0 kts | 47° |
| 2026-04-25 01:21 | 60.31932 | 24.96491 | 190 ft | 4 kts | 47° |
| 2026-04-25 01:22 | 60.31967 | 24.96571 | 190 ft | 10 kts | 48° |
| 2026-04-25 01:22 | 60.32022 | 24.96692 | 190 ft | 12 kts | 47° |
| 2026-04-25 01:22 | 60.32083 | 24.96825 | 190 ft | 13 kts | 47° |
| 2026-04-25 01:22 | 60.32167 | 24.96823 | 190 ft | 14 kts | 329° |
| 2026-04-25 01:23 | 60.32254 | 24.96722 | 190 ft | 14 kts | 331° |
| 2026-04-25 01:23 | 60.32346 | 24.96614 | 190 ft | 15 kts | 329° |
| 2026-04-25 01:23 | 60.32441 | 24.96502 | 190 ft | 16 kts | 329° |
| 2026-04-25 01:23 | 60.32542 | 24.96386 | 190 ft | 16 kts | 331° |
| 2026-04-25 01:24 | 60.32645 | 24.96266 | 190 ft | 17 kts | 330° |
| 2026-04-25 01:24 | 60.32755 | 24.96139 | 190 ft | 18 kts | 329° |
| 2026-04-25 01:24 | 60.32868 | 24.96006 | 190 ft | 19 kts | 330° |
| 2026-04-25 01:24 | 60.32984 | 24.95870 | 190 ft | 19 kts | 330° |
| 2026-04-25 01:25 | 60.33095 | 24.95722 | 190 ft | 19 kts | 316° |
| 2026-04-25 01:25 | 60.33193 | 24.95536 | 190 ft | 19 kts | 308° |
| 2026-04-25 01:25 | 60.33170 | 24.95307 | 190 ft | 18 kts | 226° |
| 2026-04-25 01:25 | 60.33108 | 24.95091 | 190 ft | 17 kts | 262° |
| 2026-04-25 01:26 | 60.33112 | 24.94843 | 190 ft | 18 kts | 271° |
| 2026-04-25 01:26 | 60.33116 | 24.94589 | 190 ft | 18 kts | 272° |
| 2026-04-25 01:26 | 60.33090 | 24.94340 | 189 ft | 18 kts | 230° |
| 2026-04-25 01:26 | 60.32947 | 24.94026 | 190 ft | 60 kts | 227° |
| 2026-04-25 01:27 | 60.32501 | 24.93046 | 190 ft | 127 kts | 227° |
| 2026-04-25 01:27 | 60.31812 | 24.91532 | 478 ft | 154 kts | 228° |
| 2026-04-25 01:27 | 60.31094 | 24.89960 | 1142 ft | 155 kts | 230° |
| 2026-04-25 01:28 | 60.30030 | 24.86286 | 2444 ft | 162 kts | 264° |
| 2026-04-25 01:28 | 60.30233 | 24.84008 | 2928 ft | 177 kts | 291° |
| 2026-04-25 01:28 | 60.30771 | 24.81638 | 3362 ft | 200 kts | 294° |
| 2026-04-25 01:28 | 60.31398 | 24.78981 | 3914 ft | 219 kts | 295° |
| 2026-04-25 01:29 | 60.32109 | 24.76184 | 4511 ft | 237 kts | 298° |
| 2026-04-25 01:29 | 60.32940 | 24.73234 | 5289 ft | 246 kts | 298° |
| 2026-04-25 01:29 | 60.33778 | 24.70254 | 6241 ft | 248 kts | 299° |
| 2026-04-25 01:29 | 60.34616 | 24.67253 | 7194 ft | 249 kts | 298° |
| 2026-04-25 01:30 | 60.35628 | 24.64431 | 8059 ft | 255 kts | 317° |
| 2026-04-25 01:30 | 60.37197 | 24.62748 | 8921 ft | 266 kts | 341° |
| 2026-04-25 01:30 | 60.39044 | 24.62612 | 9763 ft | 279 kts | 5° |
| 2026-04-25 01:30 | 60.40943 | 24.63470 | 10424 ft | 290 kts | 7° |
| 2026-04-25 01:31 | 60.42958 | 24.64387 | 10986 ft | 302 kts | 7° |
| 2026-04-25 01:31 | 60.45000 | 24.65321 | 11766 ft | 306 kts | 7° |
| 2026-04-25 01:31 | 60.47079 | 24.66274 | 12556 ft | 308 kts | 7° |
| 2026-04-25 01:31 | 60.49163 | 24.67229 | 13310 ft | 311 kts | 7° |
| 2026-04-25 01:32 | 60.51256 | 24.68189 | 14035 ft | 314 kts | 7° |
| 2026-04-25 01:32 | 60.53399 | 24.69175 | 14761 ft | 317 kts | 7° |
| 2026-04-25 01:32 | 60.55529 | 24.70154 | 15412 ft | 320 kts | 6° |
| 2026-04-25 01:32 | 60.57699 | 24.71152 | 16053 ft | 324 kts | 6° |
| 2026-04-25 01:33 | 60.59904 | 24.72166 | 16694 ft | 328 kts | 6° |
| 2026-04-25 01:33 | 60.62110 | 24.73184 | 17312 ft | 331 kts | 6° |
| 2026-04-25 01:33 | 60.64353 | 24.74221 | 17918 ft | 333 kts | 6° |
| 2026-04-25 01:33 | 60.66608 | 24.75261 | 18499 ft | 336 kts | 6° |
| 2026-04-25 01:34 | 60.68904 | 24.76325 | 19060 ft | 340 kts | 6° |
| 2026-04-25 01:34 | 60.71198 | 24.77387 | 19612 ft | 343 kts | 6° |
| 2026-04-25 01:34 | 60.73518 | 24.78465 | 20136 ft | 346 kts | 6° |
| 2026-04-25 01:34 | 60.75872 | 24.79559 | 20650 ft | 349 kts | 6° |
| 2026-04-25 01:35 | 60.78231 | 24.80658 | 21150 ft | 353 kts | 5° |
| 2026-04-25 01:35 | 60.80624 | 24.81766 | 21631 ft | 356 kts | 4° |
| 2026-04-25 01:35 | 60.83058 | 24.82661 | 22122 ft | 355 kts | 0° |
| 2026-04-25 01:35 | 60.85492 | 24.83293 | 22609 ft | 357 kts | 359° |
| 2026-04-25 01:36 | 60.87937 | 24.83868 | 23062 ft | 359 kts | 359° |
| 2026-04-25 01:36 | 60.90423 | 24.84447 | 23524 ft | 362 kts | 359° |
| 2026-04-25 01:36 | 60.92916 | 24.85029 | 23955 ft | 365 kts | 358° |
| 2026-04-25 01:36 | 60.95446 | 24.85622 | 24399 ft | 368 kts | 359° |
| 2026-04-25 01:37 | 60.97994 | 24.86221 | 24814 ft | 371 kts | 359° |
| 2026-04-25 01:37 | 61.00530 | 24.86823 | 25244 ft | 373 kts | 359° |
| 2026-04-25 01:37 | 61.03132 | 24.87442 | 25671 ft | 376 kts | 359° |
| 2026-04-25 01:37 | 61.05706 | 24.88053 | 26073 ft | 379 kts | 359° |
| 2026-04-25 01:38 | 61.08324 | 24.88678 | 26462 ft | 382 kts | 359° |
| 2026-04-25 01:38 | 61.10964 | 24.89311 | 26818 ft | 386 kts | 359° |
| 2026-04-25 01:38 | 61.13631 | 24.89950 | 27208 ft | 388 kts | 359° |
| 2026-04-25 01:38 | 61.16329 | 24.90598 | 27602 ft | 391 kts | 358° |
| 2026-04-25 01:39 | 61.19026 | 24.91247 | 27979 ft | 393 kts | 358° |
| 2026-04-25 01:39 | 61.21732 | 24.91896 | 28337 ft | 395 kts | 359° |
| 2026-04-25 01:39 | 61.24446 | 24.92548 | 28675 ft | 398 kts | 359° |
| 2026-04-25 01:39 | 61.25948 | 24.92910 | 28871 ft | 399 kts | 359° |
| 2026-04-25 01:40 | 61.28990 | 24.93648 | 29248 ft | 401 kts | 359° |
| 2026-04-25 01:40 | 61.31769 | 24.94321 | 29556 ft | 404 kts | 359° |
| 2026-04-25 01:40 | 61.34535 | 24.94995 | 29870 ft | 406 kts | 359° |
| 2026-04-25 01:41 | 61.37336 | 24.95674 | 30155 ft | 408 kts | 359° |
| 2026-04-25 01:41 | 61.40150 | 24.96358 | 30428 ft | 411 kts | 359° |
| 2026-04-25 01:41 | 61.42992 | 24.97054 | 30702 ft | 414 kts | 359° |
| 2026-04-25 01:41 | 61.45832 | 24.97752 | 31011 ft | 414 kts | 359° |
| 2026-04-25 01:42 | 61.48683 | 24.98454 | 31433 ft | 411 kts | 359° |
| 2026-04-25 01:42 | 61.51483 | 24.99144 | 31732 ft | 412 kts | 359° |
| 2026-04-25 01:42 | 61.54344 | 24.99845 | 31966 ft | 414 kts | 359° |
| 2026-04-25 01:42 | 61.57176 | 25.00540 | 32185 ft | 415 kts | 359° |
| 2026-04-25 01:43 | 61.60025 | 25.01203 | 32405 ft | 415 kts | 357° |
| 2026-04-25 01:43 | 61.62904 | 25.01589 | 32614 ft | 413 kts | 354° |
| 2026-04-25 01:43 | 61.65750 | 25.01749 | 32786 ft | 414 kts | 354° |
| 2026-04-25 01:43 | 61.68615 | 25.01852 | 32987 ft | 415 kts | 354° |
| 2026-04-25 01:44 | 61.71488 | 25.01946 | 33188 ft | 416 kts | 354° |
| 2026-04-25 01:44 | 61.74366 | 25.02043 | 33366 ft | 418 kts | 354° |
| 2026-04-25 01:44 | 61.77287 | 25.02144 | 33540 ft | 419 kts | 354° |
| 2026-04-25 01:44 | 61.80202 | 25.02249 | 33708 ft | 420 kts | 354° |
| 2026-04-25 01:45 | 61.83079 | 25.02352 | 33877 ft | 422 kts | 354° |
| 2026-04-25 01:45 | 61.86019 | 25.02459 | 34029 ft | 423 kts | 354° |
| 2026-04-25 01:45 | 61.88945 | 25.02566 | 34153 ft | 425 kts | 354° |
| 2026-04-25 01:45 | 61.91881 | 25.02673 | 34286 ft | 426 kts | 354° |
| 2026-04-25 01:46 | 61.94837 | 25.02784 | 34437 ft | 427 kts | 354° |
| 2026-04-25 01:46 | 61.97807 | 25.02892 | 34585 ft | 428 kts | 355° |
| 2026-04-25 01:46 | 62.00750 | 25.03003 | 34728 ft | 428 kts | 355° |
| 2026-04-25 01:46 | 62.03737 | 25.03115 | 34836 ft | 430 kts | 355° |
| 2026-04-25 01:47 | 62.09710 | 25.03340 | 35029 ft | 432 kts | 355° |
| 2026-04-25 01:47 | 62.15697 | 25.03569 | 35229 ft | 435 kts | 355° |
| 2026-04-25 01:48 | 62.21770 | 25.03798 | 35403 ft | 438 kts | 355° |
| 2026-04-25 01:48 | 62.27843 | 25.04030 | 35441 ft | 440 kts | 355° |
| 2026-04-25 01:49 | 62.33919 | 25.04265 | 35431 ft | 440 kts | 355° |
| 2026-04-25 01:49 | 62.40002 | 25.04500 | 35426 ft | 440 kts | 355° |
| 2026-04-25 01:50 | 62.46128 | 25.04738 | 35440 ft | 441 kts | 355° |
| 2026-04-25 01:50 | 62.52204 | 25.04971 | 35433 ft | 441 kts | 356° |
| 2026-04-25 01:51 | 62.58338 | 25.05212 | 35435 ft | 441 kts | 355° |
| 2026-04-25 01:51 | 62.64433 | 25.05448 | 35424 ft | 442 kts | 356° |
| 2026-04-25 01:52 | 62.70555 | 25.05690 | 35415 ft | 442 kts | 355° |
| 2026-04-25 01:52 | 62.76701 | 25.05929 | 35411 ft | 442 kts | 356° |
| 2026-04-25 01:53 | 62.82809 | 25.06170 | 35409 ft | 443 kts | 356° |
| 2026-04-25 01:53 | 62.88945 | 25.06414 | 35410 ft | 444 kts | 356° |
| 2026-04-25 01:54 | 62.95071 | 25.06656 | 35397 ft | 444 kts | 356° |
| 2026-04-25 01:54 | 63.01219 | 25.06903 | 35403 ft | 444 kts | 356° |
| 2026-04-25 01:55 | 63.07367 | 25.07150 | 35393 ft | 444 kts | 356° |
| 2026-04-25 01:55 | 63.13522 | 25.07403 | 35170 ft | 442 kts | 356° |
| 2026-04-25 01:56 | 63.16573 | 25.07532 | 34941 ft | 441 kts | 355° |
| 2026-04-25 01:56 | 63.19641 | 25.07661 | 34523 ft | 440 kts | 355° |
| 2026-04-25 01:56 | 63.22660 | 25.07788 | 33989 ft | 441 kts | 355° |
| 2026-04-25 01:56 | 63.25703 | 25.07916 | 33548 ft | 437 kts | 354° |
| 2026-04-25 01:57 | 63.31674 | 25.08164 | 32698 ft | 428 kts | 354° |
| 2026-04-25 01:57 | 63.34640 | 25.08285 | 32252 ft | 424 kts | 354° |
| 2026-04-25 01:57 | 63.37528 | 25.08404 | 31797 ft | 422 kts | 353° |
| 2026-04-25 01:58 | 63.40440 | 25.08522 | 31328 ft | 420 kts | 353° |
| 2026-04-25 01:58 | 63.43343 | 25.08640 | 30871 ft | 418 kts | 353° |
| 2026-04-25 01:58 | 63.46257 | 25.08738 | 30344 ft | 416 kts | 351° |
| 2026-04-25 01:58 | 63.49080 | 25.08511 | 29871 ft | 409 kts | 349° |
| 2026-04-25 01:59 | 63.51876 | 25.08141 | 29438 ft | 404 kts | 348° |
| 2026-04-25 01:59 | 63.54675 | 25.07753 | 29034 ft | 399 kts | 348° |
| 2026-04-25 01:59 | 63.57383 | 25.07388 | 28633 ft | 393 kts | 348° |
| 2026-04-25 01:59 | 63.60091 | 25.07033 | 28228 ft | 387 kts | 348° |
| 2026-04-25 02:00 | 63.62750 | 25.06691 | 27802 ft | 383 kts | 348° |
| 2026-04-25 02:00 | 63.65372 | 25.06358 | 27342 ft | 379 kts | 348° |
| 2026-04-25 02:00 | 63.67981 | 25.06024 | 26838 ft | 376 kts | 348° |
| 2026-04-25 02:00 | 63.70553 | 25.05702 | 26427 ft | 371 kts | 348° |
| 2026-04-25 02:01 | 63.73116 | 25.05380 | 25936 ft | 369 kts | 348° |
| 2026-04-25 02:01 | 63.75655 | 25.05062 | 25475 ft | 366 kts | 348° |
| 2026-04-25 02:01 | 63.78164 | 25.04748 | 25023 ft | 363 kts | 348° |
| 2026-04-25 02:01 | 63.80671 | 25.04431 | 24513 ft | 361 kts | 348° |
| 2026-04-25 02:02 | 63.83180 | 25.04109 | 23985 ft | 360 kts | 348° |
| 2026-04-25 02:02 | 63.85643 | 25.03798 | 23497 ft | 358 kts | 349° |
| 2026-04-25 02:02 | 63.88113 | 25.03482 | 23004 ft | 356 kts | 349° |
| 2026-04-25 02:02 | 63.90556 | 25.03173 | 22513 ft | 354 kts | 349° |
| 2026-04-25 02:03 | 63.92974 | 25.02871 | 22057 ft | 350 kts | 350° |
| 2026-04-25 02:03 | 63.95396 | 25.02568 | 21601 ft | 347 kts | 350° |
| 2026-04-25 02:03 | 63.97798 | 25.02266 | 21140 ft | 345 kts | 350° |
| 2026-04-25 02:03 | 64.00171 | 25.01966 | 20684 ft | 342 kts | 350° |
| 2026-04-25 02:04 | 64.02522 | 25.01668 | 20204 ft | 340 kts | 350° |
| 2026-04-25 02:04 | 64.04854 | 25.01369 | 19747 ft | 338 kts | 351° |
| 2026-04-25 02:04 | 64.07200 | 25.01070 | 19292 ft | 336 kts | 351° |
| 2026-04-25 02:04 | 64.09512 | 25.00774 | 18856 ft | 334 kts | 351° |
| 2026-04-25 02:05 | 64.11787 | 25.00483 | 18411 ft | 332 kts | 351° |
| 2026-04-25 02:05 | 64.14095 | 25.00186 | 17941 ft | 330 kts | 352° |
| 2026-04-25 02:05 | 64.16373 | 24.99892 | 17472 ft | 329 kts | 352° |
| 2026-04-25 02:05 | 64.18647 | 24.99599 | 17011 ft | 328 kts | 352° |
| 2026-04-25 02:06 | 64.20888 | 24.99310 | 16572 ft | 327 kts | 352° |
| 2026-04-25 02:06 | 64.23147 | 24.99018 | 16109 ft | 326 kts | 353° |
| 2026-04-25 02:06 | 64.25399 | 24.98727 | 15667 ft | 324 kts | 353° |
| 2026-04-25 02:06 | 64.27638 | 24.98440 | 15247 ft | 322 kts | 353° |
| 2026-04-25 02:07 | 64.29841 | 24.98154 | 14841 ft | 320 kts | 353° |
| 2026-04-25 02:07 | 64.32037 | 24.97871 | 14444 ft | 318 kts | 354° |
| 2026-04-25 02:07 | 64.34228 | 24.97588 | 14039 ft | 315 kts | 354° |
| 2026-04-25 02:07 | 64.36421 | 24.97303 | 13633 ft | 313 kts | 354° |
| 2026-04-25 02:08 | 64.38577 | 24.97024 | 13231 ft | 311 kts | 354° |
| 2026-04-25 02:08 | 64.40698 | 24.96747 | 12829 ft | 309 kts | 354° |
| 2026-04-25 02:08 | 64.42850 | 24.96465 | 12412 ft | 307 kts | 354° |
| 2026-04-25 02:08 | 64.44944 | 24.96190 | 12026 ft | 304 kts | 354° |
| 2026-04-25 02:09 | 64.47040 | 24.95915 | 11647 ft | 301 kts | 355° |
| 2026-04-25 02:09 | 64.49116 | 24.95639 | 11290 ft | 298 kts | 355° |
| 2026-04-25 02:09 | 64.51163 | 24.95368 | 10940 ft | 294 kts | 355° |
| 2026-04-25 02:09 | 64.53192 | 24.95103 | 10576 ft | 291 kts | 356° |
| 2026-04-25 02:10 | 64.55190 | 24.94839 | 10231 ft | 288 kts | 356° |
| 2026-04-25 02:10 | 64.57147 | 24.94579 | 9880 ft | 285 kts | 356° |
| 2026-04-25 02:10 | 64.59120 | 24.94319 | 9524 ft | 282 kts | 356° |
| 2026-04-25 02:10 | 64.61015 | 24.94068 | 9392 ft | 271 kts | 357° |
| 2026-04-25 02:11 | 64.62884 | 24.93820 | 9042 ft | 269 kts | 357° |
| 2026-04-25 02:11 | 64.64745 | 24.93566 | 8682 ft | 266 kts | 357° |
| 2026-04-25 02:11 | 64.66574 | 24.93325 | 8347 ft | 264 kts | 358° |
| 2026-04-25 02:11 | 64.68408 | 24.93083 | 8009 ft | 262 kts | 358° |
| 2026-04-25 02:12 | 64.70191 | 24.92848 | 7679 ft | 260 kts | 358° |
| 2026-04-25 02:12 | 64.71994 | 24.92607 | 7344 ft | 258 kts | 358° |
| 2026-04-25 02:12 | 64.73778 | 24.92367 | 7016 ft | 257 kts | 358° |
| 2026-04-25 02:12 | 64.75559 | 24.92129 | 6686 ft | 256 kts | 358° |
| 2026-04-25 02:13 | 64.77314 | 24.91893 | 6363 ft | 254 kts | 358° |
| 2026-04-25 02:13 | 64.79057 | 24.91659 | 6051 ft | 252 kts | 359° |
| 2026-04-25 02:13 | 64.80804 | 24.91423 | 5743 ft | 250 kts | 359° |
| 2026-04-25 02:13 | 64.82511 | 24.91195 | 5448 ft | 247 kts | 359° |
| 2026-04-25 02:14 | 64.84217 | 24.90966 | 5144 ft | 245 kts | 359° |
| 2026-04-25 02:14 | 64.85919 | 24.90735 | 4841 ft | 244 kts | 359° |
| 2026-04-25 02:14 | 64.87611 | 24.90510 | 4536 ft | 244 kts | 359° |
| 2026-04-25 02:14 | 64.89288 | 24.90282 | 4279 ft | 240 kts | 360° |
| 2026-04-25 02:15 | 64.90936 | 24.90056 | 4041 ft | 235 kts | 360° |
| 2026-04-25 02:15 | 64.92551 | 24.89836 | 3784 ft | 231 kts | 0° |
| 2026-04-25 02:15 | 64.94118 | 24.89687 | 3542 ft | 226 kts | 7° |
| 2026-04-25 02:15 | 64.95605 | 24.90473 | 3304 ft | 215 kts | 26° |
| 2026-04-25 02:16 | 64.96902 | 24.92112 | 3040 ft | 207 kts | 33° |
| 2026-04-25 02:16 | 64.98122 | 24.93852 | 2821 ft | 203 kts | 34° |
| 2026-04-25 02:16 | 64.99313 | 24.95558 | 2586 ft | 199 kts | 33° |
| 2026-04-25 02:16 | 65.00472 | 24.97247 | 2379 ft | 194 kts | 39° |
| 2026-04-25 02:17 | 65.01228 | 24.99675 | 2277 ft | 179 kts | 77° |
| 2026-04-25 02:17 | 65.01159 | 25.02396 | 2346 ft | 162 kts | 105° |
| 2026-04-25 02:17 | 65.00709 | 25.04864 | 2318 ft | 163 kts | 114° |
| 2026-04-25 02:17 | 65.00195 | 25.07221 | 2297 ft | 163 kts | 115° |
| 2026-04-25 02:18 | 64.99641 | 25.09543 | 2287 ft | 162 kts | 117° |
| 2026-04-25 02:18 | 64.99065 | 25.11832 | 2226 ft | 163 kts | 117° |
| 2026-04-25 02:18 | 64.98477 | 25.14112 | 2013 ft | 163 kts | 117° |
| 2026-04-25 02:18 | 64.97888 | 25.16390 | 1781 ft | 160 kts | 117° |
| 2026-04-25 02:19 | 64.97333 | 25.18543 | 1567 ft | 147 kts | 117° |
| 2026-04-25 02:19 | 64.96825 | 25.20517 | 1344 ft | 136 kts | 117° |
| 2026-04-25 02:19 | 64.96356 | 25.22342 | 1124 ft | 125 kts | 118° |
| 2026-04-25 02:19 | 64.95909 | 25.24081 | 996 ft | 124 kts | 118° |
| 2026-04-25 02:20 | 64.95466 | 25.25841 | 814 ft | 125 kts | 118° |
| 2026-04-25 02:20 | 64.95023 | 25.27598 | 636 ft | 125 kts | 119° |
| 2026-04-25 02:20 | 64.94573 | 25.29354 | 469 ft | 126 kts | 120° |
| 2026-04-25 02:20 | 64.94120 | 25.31105 | 310 ft | 126 kts | 120° |
| 2026-04-25 02:21 | 64.93668 | 25.32878 | 129 ft | 126 kts | 120° |
| 2026-04-25 02:21 | 64.93226 | 25.34603 | 45 ft | 112 kts | 120° |
| 2026-04-25 02:21 | 64.92917 | 25.35812 | 41 ft | 58 kts | 121° |
| 2026-04-25 02:21 | 64.92806 | 25.36244 | 41 ft | 13 kts | 116° |
| 2026-04-25 02:22 | 64.92838 | 25.36430 | 41 ft | 14 kts | 34° |
| 2026-04-25 02:22 | 64.92904 | 25.36531 | 41 ft | 8 kts | 57° |
| 2026-04-25 02:22 | 64.92888 | 25.36676 | 41 ft | 10 kts | 123° |
| 2026-04-25 02:22 | 64.92847 | 25.36836 | 41 ft | 12 kts | 120° |
| 2026-04-25 02:23 | 64.92802 | 25.37012 | 41 ft | 12 kts | 121° |
| 2026-04-25 02:23 | 64.92755 | 25.37191 | 41 ft | 11 kts | 121° |
| 2026-04-25 02:23 | 64.92745 | 25.37282 | 41 ft | 4 kts | 39° |
| 2026-04-25 02:23 | 64.92768 | 25.37309 | 41 ft | 4 kts | 29° |
| 2026-04-25 02:24 | 64.92793 | 25.37343 | 41 ft | 2 kts | 30° |
| 2026-04-25 02:24 | 64.92799 | 25.37351 | 41 ft | 1 kts | 30° |